sensor_id;sensor_type;location;lat;lon;timestamp;temperature;humidity
56308;DHT22;42217;50.422;7.210;2023-06-14T00:01:45;14.30;1.00
56308;DHT22;42217;50.422;7.210;2023-06-14T00:04:12;14.50;1.00
56308;DHT22;42217;50.422;7.210;2023-06-14T00:06:38;14.50;1.00
56308;DHT22;42217;50.422;7.210;2023-06-14T00:09:04;14.50;1.00
56308;DHT22;42217;50.422;7.210;2023-06-14T00:11:31;14.60;1.00
56308;DHT22;42217;50.422;7.210;2023-06-14T00:13:57;14.60;1.00
56308;DHT22;42217;50.422;7.210;2023-06-14T00:16:23;14.50;1.00
56308;DHT22;42217;50.422;7.210;2023-06-14T00:18:49;14.60;1.00
56308;DHT22;42217;50.422;7.210;2023-06-14T00:21:18;14.60;1.00
56308;DHT22;42217;50.422;7.210;2023-06-14T00:23:45;14.60;1.00
56308;DHT22;42217;50.422;7.210;2023-06-14T00:26:11;14.50;1.00
56308;DHT22;42217;50.422;7.210;2023-06-14T00:28:37;14.40;1.00
56308;DHT22;42217;50.422;7.210;2023-06-14T00:31:02;14.40;1.00
56308;DHT22;42217;50.422;7.210;2023-06-14T00:33:28;14.40;1.00
56308;DHT22;42217;50.422;7.210;2023-06-14T00:35:54;14.20;1.00
56308;DHT22;42217;50.422;7.210;2023-06-14T00:38:20;14.20;1.00
56308;DHT22;42217;50.422;7.210;2023-06-14T00:40:46;13.80;1.00
56308;DHT22;42217;50.422;7.210;2023-06-14T00:43:12;13.50;1.00
56308;DHT22;42217;50.422;7.210;2023-06-14T00:45:38;13.60;1.00
56308;DHT22;42217;50.422;7.210;2023-06-14T00:48:04;13.30;18.00
56308;DHT22;42217;50.422;7.210;2023-06-14T00:50:32;13.10;24.70
56308;DHT22;42217;50.422;7.210;2023-06-14T00:53:02;13.20;19.70
56308;DHT22;42217;50.422;7.210;2023-06-14T00:55:28;12.90;32.20
56308;DHT22;42217;50.422;7.210;2023-06-14T00:57:55;12.70;42.70
56308;DHT22;42217;50.422;7.210;2023-06-14T01:00:21;12.90;30.70
56308;DHT22;42217;50.422;7.210;2023-06-14T01:02:47;12.70;39.40
56308;DHT22;42217;50.422;7.210;2023-06-14T01:05:14;12.60;47.00
56308;DHT22;42217;50.422;7.210;2023-06-14T01:15:48;12.10;68.20
56308;DHT22;42217;50.422;7.210;2023-06-14T01:18:15;12.20;65.20
56308;DHT22;42217;50.422;7.210;2023-06-14T01:20:45;12.30;60.30
56308;DHT22;42217;50.422;7.210;2023-06-14T01:23:18;12.40;54.30
56308;DHT22;42217;50.422;7.210;2023-06-14T01:25:44;12.20;65.30
56308;DHT22;42217;50.422;7.210;2023-06-14T01:28:11;11.90;74.70
56308;DHT22;42217;50.422;7.210;2023-06-14T01:30:39;11.70;82.80
56308;DHT22;42217;50.422;7.210;2023-06-14T01:33:15;11.70;82.40
56308;DHT22;42217;50.422;7.210;2023-06-14T01:35:43;11.50;89.80
56308;DHT22;42217;50.422;7.210;2023-06-14T01:38:10;11.70;83.30
56308;DHT22;42217;50.422;7.210;2023-06-14T01:40:36;11.90;73.60
56308;DHT22;42217;50.422;7.210;2023-06-14T01:43:03;11.80;73.10
56308;DHT22;42217;50.422;7.210;2023-06-14T01:45:30;11.90;68.40
56308;DHT22;42217;50.422;7.210;2023-06-14T01:47:57;12.10;57.10
56308;DHT22;42217;50.422;7.210;2023-06-14T01:50:23;12.50;38.70
56308;DHT22;42217;50.422;7.210;2023-06-14T01:52:48;12.60;32.20
56308;DHT22;42217;50.422;7.210;2023-06-14T01:55:14;12.60;32.70
56308;DHT22;42217;50.422;7.210;2023-06-14T01:57:40;12.90;20.80
56308;DHT22;42217;50.422;7.210;2023-06-14T02:00:07;13.10;14.50
56308;DHT22;42217;50.422;7.210;2023-06-14T02:02:35;13.10;28.90
56308;DHT22;42217;50.422;7.210;2023-06-14T02:05:01;12.90;32.70
56308;DHT22;42217;50.422;7.210;2023-06-14T02:07:27;12.80;26.90
56308;DHT22;42217;50.422;7.210;2023-06-14T02:09:53;12.60;36.40
56308;DHT22;42217;50.422;7.210;2023-06-14T02:12:18;12.70;24.50
56308;DHT22;42217;50.422;7.210;2023-06-14T02:14:44;12.80;23.00
56308;DHT22;42217;50.422;7.210;2023-06-14T02:17:10;12.70;24.50
56308;DHT22;42217;50.422;7.210;2023-06-14T02:19:36;12.40;37.20
56308;DHT22;42217;50.422;7.210;2023-06-14T02:22:01;12.30;43.70
56308;DHT22;42217;50.422;7.210;2023-06-14T02:24:27;12.30;40.40
56308;DHT22;42217;50.422;7.210;2023-06-14T02:26:53;12.00;52.00
56308;DHT22;42217;50.422;7.210;2023-06-14T02:29:18;12.00;56.80
56308;DHT22;42217;50.422;7.210;2023-06-14T02:31:44;12.40;40.20
56308;DHT22;42217;50.422;7.210;2023-06-14T02:34:12;12.70;26.00
56308;DHT22;42217;50.422;7.210;2023-06-14T02:36:38;12.60;29.90
56308;DHT22;42217;50.422;7.210;2023-06-14T02:39:07;12.30;41.20
56308;DHT22;42217;50.422;7.210;2023-06-14T02:41:34;11.80;61.20
56308;DHT22;42217;50.422;7.210;2023-06-14T02:44:00;11.60;68.30
56308;DHT22;42217;50.422;7.210;2023-06-14T02:46:26;11.70;61.40
56308;DHT22;42217;50.422;7.210;2023-06-14T02:48:51;11.60;63.50
56308;DHT22;42217;50.422;7.210;2023-06-14T02:51:17;11.80;58.20
56308;DHT22;42217;50.422;7.210;2023-06-14T02:53:43;12.00;53.40
56308;DHT22;42217;50.422;7.210;2023-06-14T02:56:09;12.10;45.50
56308;DHT22;42217;50.422;7.210;2023-06-14T02:58:36;12.20;41.50
56308;DHT22;42217;50.422;7.210;2023-06-14T03:01:02;12.40;35.10
56308;DHT22;42217;50.422;7.210;2023-06-14T03:03:28;12.50;31.30
56308;DHT22;42217;50.422;7.210;2023-06-14T03:05:54;12.20;39.20
56308;DHT22;42217;50.422;7.210;2023-06-14T03:08:20;12.10;44.50
56308;DHT22;42217;50.422;7.210;2023-06-14T03:10:46;12.20;39.90
56308;DHT22;42217;50.422;7.210;2023-06-14T03:13:13;12.20;38.20
56308;DHT22;42217;50.422;7.210;2023-06-14T03:15:39;12.10;41.30
56308;DHT22;42217;50.422;7.210;2023-06-14T03:18:08;12.10;41.00
56308;DHT22;42217;50.422;7.210;2023-06-14T03:20:38;12.10;43.40
56308;DHT22;42217;50.422;7.210;2023-06-14T03:23:04;12.20;40.90
56308;DHT22;42217;50.422;7.210;2023-06-14T03:25:31;12.20;36.10
56308;DHT22;42217;50.422;7.210;2023-06-14T03:27:58;12.30;33.80
56308;DHT22;42217;50.422;7.210;2023-06-14T03:30:24;12.40;31.20
56308;DHT22;42217;50.422;7.210;2023-06-14T03:32:50;12.30;31.80
56308;DHT22;42217;50.422;7.210;2023-06-14T03:35:21;12.30;33.90
56308;DHT22;42217;50.422;7.210;2023-06-14T03:37:47;12.40;29.30
56308;DHT22;42217;50.422;7.210;2023-06-14T03:40:15;12.40;29.40
56308;DHT22;42217;50.422;7.210;2023-06-14T03:42:41;12.40;28.30
56308;DHT22;42217;50.422;7.210;2023-06-14T03:45:07;12.30;32.00
56308;DHT22;42217;50.422;7.210;2023-06-14T03:47:34;12.50;30.30
56308;DHT22;42217;50.422;7.210;2023-06-14T03:50:00;12.60;26.50
56308;DHT22;42217;50.422;7.210;2023-06-14T03:52:27;12.80;19.50
56308;DHT22;42217;50.422;7.210;2023-06-14T03:54:52;13.10;11.00
56308;DHT22;42217;50.422;7.210;2023-06-14T03:57:18;13.20;9.10
56308;DHT22;42217;50.422;7.210;2023-06-14T03:59:44;13.40;5.40
56308;DHT22;42217;50.422;7.210;2023-06-14T04:02:10;13.70;1.00
56308;DHT22;42217;50.422;7.210;2023-06-14T04:04:36;13.80;1.00
56308;DHT22;42217;50.422;7.210;2023-06-14T04:07:02;13.90;1.00
56308;DHT22;42217;50.422;7.210;2023-06-14T04:09:29;14.10;1.00
56308;DHT22;42217;50.422;7.210;2023-06-14T04:11:55;14.20;1.00
56308;DHT22;42217;50.422;7.210;2023-06-14T04:14:21;14.40;1.00
56308;DHT22;42217;50.422;7.210;2023-06-14T04:16:48;14.70;1.00
56308;DHT22;42217;50.422;7.210;2023-06-14T04:19:14;14.90;1.00
56308;DHT22;42217;50.422;7.210;2023-06-14T04:21:40;15.30;1.00
56308;DHT22;42217;50.422;7.210;2023-06-14T04:24:06;15.40;1.00
56308;DHT22;42217;50.422;7.210;2023-06-14T04:26:32;15.30;1.00
56308;DHT22;42217;50.422;7.210;2023-06-14T04:28:59;15.20;1.00
56308;DHT22;42217;50.422;7.210;2023-06-14T04:31:29;15.10;1.00
56308;DHT22;42217;50.422;7.210;2023-06-14T04:33:55;15.00;1.00
56308;DHT22;42217;50.422;7.210;2023-06-14T04:36:21;15.30;1.00
56308;DHT22;42217;50.422;7.210;2023-06-14T04:38:48;15.30;1.00
56308;DHT22;42217;50.422;7.210;2023-06-14T04:41:14;15.80;1.00
56308;DHT22;42217;50.422;7.210;2023-06-14T04:43:41;16.20;1.00
56308;DHT22;42217;50.422;7.210;2023-06-14T04:46:08;16.00;1.00
56308;DHT22;42217;50.422;7.210;2023-06-14T04:48:40;16.50;1.00
56308;DHT22;42217;50.422;7.210;2023-06-14T04:51:07;16.60;1.00
56308;DHT22;42217;50.422;7.210;2023-06-14T04:53:33;16.50;1.00
56308;DHT22;42217;50.422;7.210;2023-06-14T04:55:59;16.60;1.00
56308;DHT22;42217;50.422;7.210;2023-06-14T04:58:29;16.60;1.00
56308;DHT22;42217;50.422;7.210;2023-06-14T05:00:55;16.60;1.00
56308;DHT22;42217;50.422;7.210;2023-06-14T05:03:22;16.70;1.00
56308;DHT22;42217;50.422;7.210;2023-06-14T05:05:49;17.00;1.00
56308;DHT22;42217;50.422;7.210;2023-06-14T05:08:16;17.00;1.00
56308;DHT22;42217;50.422;7.210;2023-06-14T05:10:42;17.00;1.00
56308;DHT22;42217;50.422;7.210;2023-06-14T05:13:07;17.00;1.00
56308;DHT22;42217;50.422;7.210;2023-06-14T05:15:33;17.00;1.00
56308;DHT22;42217;50.422;7.210;2023-06-14T05:17:59;17.00;1.00
56308;DHT22;42217;50.422;7.210;2023-06-14T05:20:25;16.90;3.00
56308;DHT22;42217;50.422;7.210;2023-06-14T05:22:54;16.80;6.10
56308;DHT22;42217;50.422;7.210;2023-06-14T05:25:22;16.70;1.00
56308;DHT22;42217;50.422;7.210;2023-06-14T05:27:48;16.70;1.00
56308;DHT22;42217;50.422;7.210;2023-06-14T05:30:15;16.90;1.00
56308;DHT22;42217;50.422;7.210;2023-06-14T05:32:41;17.00;1.00
56308;DHT22;42217;50.422;7.210;2023-06-14T05:35:07;17.10;1.00
56308;DHT22;42217;50.422;7.210;2023-06-14T05:37:33;17.20;1.00
56308;DHT22;42217;50.422;7.210;2023-06-14T05:39:59;17.30;1.00
56308;DHT22;42217;50.422;7.210;2023-06-14T05:42:24;17.30;1.00
56308;DHT22;42217;50.422;7.210;2023-06-14T05:44:50;17.50;1.00
56308;DHT22;42217;50.422;7.210;2023-06-14T05:47:16;17.60;1.00
56308;DHT22;42217;50.422;7.210;2023-06-14T05:49:42;17.80;99.90
56308;DHT22;42217;50.422;7.210;2023-06-14T05:52:08;17.90;99.90
56308;DHT22;42217;50.422;7.210;2023-06-14T05:54:33;18.00;99.90
56308;DHT22;42217;50.422;7.210;2023-06-14T05:56:59;18.10;99.90
56308;DHT22;42217;50.422;7.210;2023-06-14T05:59:27;18.30;99.90
56308;DHT22;42217;50.422;7.210;2023-06-14T06:01:53;18.40;53.40
56308;DHT22;42217;50.422;7.210;2023-06-14T06:04:18;18.50;1.00
56308;DHT22;42217;50.422;7.210;2023-06-14T06:06:45;18.70;99.90
56308;DHT22;42217;50.422;7.210;2023-06-14T06:09:12;18.80;99.90
56308;DHT22;42217;50.422;7.210;2023-06-14T06:11:40;19.00;99.90
56308;DHT22;42217;50.422;7.210;2023-06-14T06:14:05;19.10;99.90
56308;DHT22;42217;50.422;7.210;2023-06-14T06:16:31;19.20;1.00
56308;DHT22;42217;50.422;7.210;2023-06-14T06:18:57;19.30;99.90
56308;DHT22;42217;50.422;7.210;2023-06-14T06:21:23;19.40;99.90
56308;DHT22;42217;50.422;7.210;2023-06-14T06:23:48;19.40;99.90
56308;DHT22;42217;50.422;7.210;2023-06-14T06:26:14;19.40;92.70
56308;DHT22;42217;50.422;7.210;2023-06-14T06:28:40;19.50;41.30
56308;DHT22;42217;50.422;7.210;2023-06-14T06:31:06;19.70;1.00
56308;DHT22;42217;50.422;7.210;2023-06-14T06:33:32;19.90;99.90
56308;DHT22;42217;50.422;7.210;2023-06-14T06:35:57;19.90;99.90
56308;DHT22;42217;50.422;7.210;2023-06-14T06:38:23;20.10;7.90
56308;DHT22;42217;50.422;7.210;2023-06-14T06:40:49;20.20;1.00
56308;DHT22;42217;50.422;7.210;2023-06-14T06:43:14;20.40;99.90
56308;DHT22;42217;50.422;7.210;2023-06-14T06:45:42;20.60;99.90
56308;DHT22;42217;50.422;7.210;2023-06-14T06:48:08;20.70;99.90
56308;DHT22;42217;50.422;7.210;2023-06-14T06:50:36;20.60;1.00
56308;DHT22;42217;50.422;7.210;2023-06-14T06:53:02;20.50;99.90
56308;DHT22;42217;50.422;7.210;2023-06-14T06:55:27;20.50;99.90
56308;DHT22;42217;50.422;7.210;2023-06-14T06:57:53;20.50;99.90
56308;DHT22;42217;50.422;7.210;2023-06-14T07:00:20;20.60;1.00
56308;DHT22;42217;50.422;7.210;2023-06-14T07:02:46;20.50;90.40
56308;DHT22;42217;50.422;7.210;2023-06-14T07:05:12;20.50;39.60
56308;DHT22;42217;50.422;7.210;2023-06-14T07:07:38;20.30;99.90
56308;DHT22;42217;50.422;7.210;2023-06-14T07:10:04;20.00;99.90
56308;DHT22;42217;50.422;7.210;2023-06-14T07:12:33;20.00;85.50
56308;DHT22;42217;50.422;7.210;2023-06-14T07:15:01;19.90;1.00
56308;DHT22;42217;50.422;7.210;2023-06-14T07:17:27;20.00;99.90
56308;DHT22;42217;50.422;7.210;2023-06-14T07:19:53;20.10;97.70
56308;DHT22;42217;50.422;7.210;2023-06-14T07:22:19;20.00;99.90
56308;DHT22;42217;50.422;7.210;2023-06-14T07:24:45;20.00;99.90
56308;DHT22;42217;50.422;7.210;2023-06-14T07:27:11;20.00;1.00
56308;DHT22;42217;50.422;7.210;2023-06-14T07:29:38;19.90;99.90
56308;DHT22;42217;50.422;7.210;2023-06-14T07:32:04;20.10;99.90
56308;DHT22;42217;50.422;7.210;2023-06-14T07:34:30;20.30;99.90
56308;DHT22;42217;50.422;7.210;2023-06-14T07:36:56;20.60;2.70
56308;DHT22;42217;50.422;7.210;2023-06-14T07:39:22;20.70;1.00
56308;DHT22;42217;50.422;7.210;2023-06-14T07:41:48;20.80;1.00
56308;DHT22;42217;50.422;7.210;2023-06-14T07:44:14;20.60;1.00
56308;DHT22;42217;50.422;7.210;2023-06-14T07:46:41;20.50;1.00
56308;DHT22;42217;50.422;7.210;2023-06-14T07:49:07;20.50;1.00
56308;DHT22;42217;50.422;7.210;2023-06-14T07:51:32;20.50;99.90
56308;DHT22;42217;50.422;7.210;2023-06-14T07:53:59;20.50;99.90
56308;DHT22;42217;50.422;7.210;2023-06-14T07:56:27;20.40;99.90
56308;DHT22;42217;50.422;7.210;2023-06-14T07:58:53;20.30;99.90
56308;DHT22;42217;50.422;7.210;2023-06-14T08:01:18;20.40;25.10
56308;DHT22;42217;50.422;7.210;2023-06-14T08:03:45;20.50;1.00
56308;DHT22;42217;50.422;7.210;2023-06-14T08:06:11;20.70;99.90
56308;DHT22;42217;50.422;7.210;2023-06-14T08:08:37;20.80;99.90
56308;DHT22;42217;50.422;7.210;2023-06-14T08:11:02;20.90;99.90
56308;DHT22;42217;50.422;7.210;2023-06-14T08:13:28;21.00;99.90
56308;DHT22;42217;50.422;7.210;2023-06-14T08:15:54;21.10;77.90
56308;DHT22;42217;50.422;7.210;2023-06-14T08:18:20;21.20;99.90
56308;DHT22;42217;50.422;7.210;2023-06-14T08:20:46;21.40;98.20
56308;DHT22;42217;50.422;7.210;2023-06-14T08:23:12;21.50;96.60
56308;DHT22;42217;50.422;7.210;2023-06-14T08:25:38;21.50;8.20
56308;DHT22;42217;50.422;7.210;2023-06-14T08:28:04;21.60;1.00
56308;DHT22;42217;50.422;7.210;2023-06-14T08:30:30;21.80;1.00
56308;DHT22;42217;50.422;7.210;2023-06-14T08:32:56;22.00;1.00
56308;DHT22;42217;50.422;7.210;2023-06-14T08:35:22;22.20;99.90
56308;DHT22;42217;50.422;7.210;2023-06-14T08:37:48;22.30;99.90
56308;DHT22;42217;50.422;7.210;2023-06-14T08:40:23;22.60;99.90
56308;DHT22;42217;50.422;7.210;2023-06-14T08:42:54;22.40;1.00
56308;DHT22;42217;50.422;7.210;2023-06-14T08:45:20;22.20;9.50
56308;DHT22;42217;50.422;7.210;2023-06-14T08:47:47;22.00;1.00
56308;DHT22;42217;50.422;7.210;2023-06-14T08:50:20;22.10;1.00
56308;DHT22;42217;50.422;7.210;2023-06-14T08:52:48;22.30;99.90
56308;DHT22;42217;50.422;7.210;2023-06-14T08:55:18;22.30;99.90
56308;DHT22;42217;50.422;7.210;2023-06-14T08:57:46;22.40;1.00
56308;DHT22;42217;50.422;7.210;2023-06-14T09:00:13;22.40;1.00
56308;DHT22;42217;50.422;7.210;2023-06-14T09:02:40;22.40;1.00
56308;DHT22;42217;50.422;7.210;2023-06-14T09:05:12;22.20;99.90
56308;DHT22;42217;50.422;7.210;2023-06-14T09:07:41;22.10;1.00
56308;DHT22;42217;50.422;7.210;2023-06-14T09:10:12;22.30;1.00
56308;DHT22;42217;50.422;7.210;2023-06-14T09:12:39;22.20;1.00
56308;DHT22;42217;50.422;7.210;2023-06-14T09:15:08;22.20;10.10
56308;DHT22;42217;50.422;7.210;2023-06-14T09:17:38;22.30;1.00
56308;DHT22;42217;50.422;7.210;2023-06-14T09:20:05;22.50;1.00
56308;DHT22;42217;50.422;7.210;2023-06-14T09:22:32;22.80;1.00
56308;DHT22;42217;50.422;7.210;2023-06-14T09:24:59;22.70;1.00
56308;DHT22;42217;50.422;7.210;2023-06-14T09:27:28;22.70;99.90
56308;DHT22;42217;50.422;7.210;2023-06-14T09:29:54;22.80;99.90
56308;DHT22;42217;50.422;7.210;2023-06-14T09:32:24;22.80;99.90
56308;DHT22;42217;50.422;7.210;2023-06-14T09:34:50;22.80;99.90
56308;DHT22;42217;50.422;7.210;2023-06-14T09:37:30;23.10;99.90
56308;DHT22;42217;50.422;7.210;2023-06-14T09:39:57;23.10;99.90
56308;DHT22;42217;50.422;7.210;2023-06-14T09:42:23;23.00;99.90
56308;DHT22;42217;50.422;7.210;2023-06-14T09:44:52;22.80;99.90
56308;DHT22;42217;50.422;7.210;2023-06-14T09:47:19;22.90;99.90
56308;DHT22;42217;50.422;7.210;2023-06-14T09:49:45;23.10;99.90
56308;DHT22;42217;50.422;7.210;2023-06-14T09:52:15;23.20;99.90
56308;DHT22;42217;50.422;7.210;2023-06-14T09:54:43;22.90;99.90
56308;DHT22;42217;50.422;7.210;2023-06-14T09:57:12;22.90;99.90
56308;DHT22;42217;50.422;7.210;2023-06-14T09:59:44;22.80;99.90
56308;DHT22;42217;50.422;7.210;2023-06-14T10:02:31;22.50;99.90
56308;DHT22;42217;50.422;7.210;2023-06-14T10:05:11;22.20;99.90
56308;DHT22;42217;50.422;7.210;2023-06-14T10:07:44;22.10;99.90
56308;DHT22;42217;50.422;7.210;2023-06-14T10:10:14;22.30;99.90
56308;DHT22;42217;50.422;7.210;2023-06-14T10:12:40;22.70;99.90
56308;DHT22;42217;50.422;7.210;2023-06-14T10:15:08;22.80;99.90
56308;DHT22;42217;50.422;7.210;2023-06-14T10:23:17;22.90;99.90
56308;DHT22;42217;50.422;7.210;2023-06-14T10:25:42;22.50;1.00
56308;DHT22;42217;50.422;7.210;2023-06-14T10:28:18;22.30;54.00
56308;DHT22;42217;50.422;7.210;2023-06-14T10:33:32;22.30;1.00
56308;DHT22;42217;50.422;7.210;2023-06-14T10:36:30;22.20;1.00
56308;DHT22;42217;50.422;7.210;2023-06-14T10:39:07;22.40;1.00
56308;DHT22;42217;50.422;7.210;2023-06-14T10:41:38;22.60;1.00
56308;DHT22;42217;50.422;7.210;2023-06-14T10:46:46;22.60;1.00
56308;DHT22;42217;50.422;7.210;2023-06-14T10:49:15;22.40;1.00
56308;DHT22;42217;50.422;7.210;2023-06-14T10:51:43;22.40;1.00
56308;DHT22;42217;50.422;7.210;2023-06-14T10:54:15;22.30;1.00
56308;DHT22;42217;50.422;7.210;2023-06-14T10:56:51;22.40;1.00
56308;DHT22;42217;50.422;7.210;2023-06-14T10:59:18;22.60;1.00
56308;DHT22;42217;50.422;7.210;2023-06-14T11:04:48;22.90;99.90
56308;DHT22;42217;50.422;7.210;2023-06-14T11:07:37;22.50;99.90
56308;DHT22;42217;50.422;7.210;2023-06-14T11:10:37;22.30;1.00
56308;DHT22;42217;50.422;7.210;2023-06-14T11:13:04;22.20;1.00
56308;DHT22;42217;50.422;7.210;2023-06-14T11:15:35;22.10;1.00
56308;DHT22;42217;50.422;7.210;2023-06-14T11:18:09;22.20;1.00
56308;DHT22;42217;50.422;7.210;2023-06-14T11:20:36;22.50;99.90
56308;DHT22;42217;50.422;7.210;2023-06-14T11:23:02;22.60;1.00
56308;DHT22;42217;50.422;7.210;2023-06-14T11:25:28;22.90;99.90
56308;DHT22;42217;50.422;7.210;2023-06-14T11:27:55;22.70;99.90
56308;DHT22;42217;50.422;7.210;2023-06-14T11:30:21;22.50;99.90
56308;DHT22;42217;50.422;7.210;2023-06-14T11:32:48;22.40;99.90
56308;DHT22;42217;50.422;7.210;2023-06-14T11:35:14;22.70;99.90
56308;DHT22;42217;50.422;7.210;2023-06-14T11:37:41;23.10;99.90
56308;DHT22;42217;50.422;7.210;2023-06-14T11:40:07;23.60;99.90
56308;DHT22;42217;50.422;7.210;2023-06-14T11:42:34;23.40;99.90
56308;DHT22;42217;50.422;7.210;2023-06-14T11:45:00;23.40;99.90
56308;DHT22;42217;50.422;7.210;2023-06-14T11:47:37;23.20;99.90
56308;DHT22;42217;50.422;7.210;2023-06-14T11:50:04;23.60;99.90
56308;DHT22;42217;50.422;7.210;2023-06-14T11:52:31;23.90;99.90
56308;DHT22;42217;50.422;7.210;2023-06-14T11:54:58;23.60;99.90
56308;DHT22;42217;50.422;7.210;2023-06-14T11:57:25;22.90;99.90
56308;DHT22;42217;50.422;7.210;2023-06-14T11:59:51;22.30;99.90
56308;DHT22;42217;50.422;7.210;2023-06-14T12:02:17;22.30;1.00
56308;DHT22;42217;50.422;7.210;2023-06-14T12:04:44;22.30;99.90
56308;DHT22;42217;50.422;7.210;2023-06-14T12:07:14;22.20;1.00
56308;DHT22;42217;50.422;7.210;2023-06-14T12:09:41;22.30;1.00
56308;DHT22;42217;50.422;7.210;2023-06-14T12:12:12;22.80;1.00
56308;DHT22;42217;50.422;7.210;2023-06-14T12:14:37;23.00;99.90
56308;DHT22;42217;50.422;7.210;2023-06-14T12:17:07;23.60;1.00
56308;DHT22;42217;50.422;7.210;2023-06-14T12:19:32;24.90;99.90
56308;DHT22;42217;50.422;7.210;2023-06-14T12:22:03;26.10;99.90
56308;DHT22;42217;50.422;7.210;2023-06-14T12:24:31;27.00;99.90
56308;DHT22;42217;50.422;7.210;2023-06-14T12:26:58;27.70;99.90
56308;DHT22;42217;50.422;7.210;2023-06-14T12:29:30;27.00;95.20
56308;DHT22;42217;50.422;7.210;2023-06-14T12:31:57;26.50;90.90
56308;DHT22;42217;50.422;7.210;2023-06-14T12:34:26;26.60;95.70
56308;DHT22;42217;50.422;7.210;2023-06-14T12:36:55;27.00;96.90
56308;DHT22;42217;50.422;7.210;2023-06-14T12:39:22;27.90;75.40
56308;DHT22;42217;50.422;7.210;2023-06-14T12:41:48;28.30;43.70
56308;DHT22;42217;50.422;7.210;2023-06-14T12:44:16;28.70;8.70
56308;DHT22;42217;50.422;7.210;2023-06-14T12:46:42;28.80;1.00
56308;DHT22;42217;50.422;7.210;2023-06-14T12:49:10;29.40;1.00
56308;DHT22;42217;50.422;7.210;2023-06-14T12:51:37;29.40;1.00
56308;DHT22;42217;50.422;7.210;2023-06-14T12:54:03;28.20;1.00
56308;DHT22;42217;50.422;7.210;2023-06-14T12:56:28;26.90;1.00
56308;DHT22;42217;50.422;7.210;2023-06-14T12:58:54;25.80;1.00
56308;DHT22;42217;50.422;7.210;2023-06-14T13:01:20;25.10;27.90
56308;DHT22;42217;50.422;7.210;2023-06-14T13:03:49;24.80;68.00
56308;DHT22;42217;50.422;7.210;2023-06-14T13:06:17;25.80;82.20
56308;DHT22;42217;50.422;7.210;2023-06-14T13:08:43;27.80;28.20
56308;DHT22;42217;50.422;7.210;2023-06-14T13:11:08;29.50;1.00
56308;DHT22;42217;50.422;7.210;2023-06-14T13:13:34;30.60;1.00
56308;DHT22;42217;50.422;7.210;2023-06-14T13:16:00;31.50;1.00
56308;DHT22;42217;50.422;7.210;2023-06-14T13:18:26;31.90;1.00
56308;DHT22;42217;50.422;7.210;2023-06-14T13:20:52;31.40;1.00
56308;DHT22;42217;50.422;7.210;2023-06-14T13:23:17;32.10;1.00
56308;DHT22;42217;50.422;7.210;2023-06-14T13:25:44;32.90;1.00
56308;DHT22;42217;50.422;7.210;2023-06-14T13:28:10;32.60;1.00
56308;DHT22;42217;50.422;7.210;2023-06-14T13:30:35;33.10;99.90
56308;DHT22;42217;50.422;7.210;2023-06-14T13:33:01;33.10;99.90
56308;DHT22;42217;50.422;7.210;2023-06-14T13:35:27;33.10;99.90
56308;DHT22;42217;50.422;7.210;2023-06-14T13:37:53;33.30;99.90
56308;DHT22;42217;50.422;7.210;2023-06-14T13:40:18;33.70;99.90
56308;DHT22;42217;50.422;7.210;2023-06-14T13:42:45;33.20;99.90
56308;DHT22;42217;50.422;7.210;2023-06-14T13:45:12;33.00;99.90
56308;DHT22;42217;50.422;7.210;2023-06-14T13:47:38;33.40;99.90
56308;DHT22;42217;50.422;7.210;2023-06-14T13:50:05;33.40;99.90
56308;DHT22;42217;50.422;7.210;2023-06-14T13:52:31;32.90;99.90
56308;DHT22;42217;50.422;7.210;2023-06-14T13:54:57;31.30;99.90
56308;DHT22;42217;50.422;7.210;2023-06-14T13:57:22;30.30;99.90
56308;DHT22;42217;50.422;7.210;2023-06-14T13:59:48;31.40;99.90
56308;DHT22;42217;50.422;7.210;2023-06-14T14:02:14;32.50;99.90
56308;DHT22;42217;50.422;7.210;2023-06-14T14:04:40;33.40;99.90
56308;DHT22;42217;50.422;7.210;2023-06-14T14:07:06;33.70;99.90
56308;DHT22;42217;50.422;7.210;2023-06-14T14:09:33;34.50;99.90
56308;DHT22;42217;50.422;7.210;2023-06-14T14:12:00;34.40;99.90
56308;DHT22;42217;50.422;7.210;2023-06-14T14:14:27;35.00;99.90
56308;DHT22;42217;50.422;7.210;2023-06-14T14:16:52;34.70;99.90
56308;DHT22;42217;50.422;7.210;2023-06-14T14:19:20;34.00;99.90
56308;DHT22;42217;50.422;7.210;2023-06-14T14:21:46;33.30;99.90
56308;DHT22;42217;50.422;7.210;2023-06-14T14:24:12;34.10;99.90
56308;DHT22;42217;50.422;7.210;2023-06-14T14:26:38;35.00;99.90
56308;DHT22;42217;50.422;7.210;2023-06-14T14:29:04;35.20;99.90
56308;DHT22;42217;50.422;7.210;2023-06-14T14:31:30;35.30;99.90
56308;DHT22;42217;50.422;7.210;2023-06-14T14:33:57;35.10;99.90
56308;DHT22;42217;50.422;7.210;2023-06-14T14:36:22;33.70;99.90
56308;DHT22;42217;50.422;7.210;2023-06-14T14:38:48;32.30;99.90
56308;DHT22;42217;50.422;7.210;2023-06-14T14:41:14;32.70;99.90
56308;DHT22;42217;50.422;7.210;2023-06-14T14:43:39;33.60;99.90
56308;DHT22;42217;50.422;7.210;2023-06-14T14:46:05;34.90;99.90
56308;DHT22;42217;50.422;7.210;2023-06-14T14:48:31;34.80;99.90
56308;DHT22;42217;50.422;7.210;2023-06-14T14:50:57;32.10;99.90
56308;DHT22;42217;50.422;7.210;2023-06-14T14:53:23;30.00;99.90
56308;DHT22;42217;50.422;7.210;2023-06-14T14:55:49;27.90;99.90
56308;DHT22;42217;50.422;7.210;2023-06-14T14:58:15;26.60;99.90
56308;DHT22;42217;50.422;7.210;2023-06-14T15:00:47;27.00;99.90
56308;DHT22;42217;50.422;7.210;2023-06-14T15:03:13;28.40;99.90
56308;DHT22;42217;50.422;7.210;2023-06-14T15:05:39;29.90;99.90
56308;DHT22;42217;50.422;7.210;2023-06-14T15:08:05;31.60;99.90
56308;DHT22;42217;50.422;7.210;2023-06-14T15:10:40;33.30;99.90
56308;DHT22;42217;50.422;7.210;2023-06-14T15:13:07;33.40;99.90
56308;DHT22;42217;50.422;7.210;2023-06-14T15:15:34;33.60;99.90
56308;DHT22;42217;50.422;7.210;2023-06-14T15:18:00;32.40;99.90
56308;DHT22;42217;50.422;7.210;2023-06-14T15:20:26;30.40;99.90
56308;DHT22;42217;50.422;7.210;2023-06-14T15:22:52;30.30;99.90
56308;DHT22;42217;50.422;7.210;2023-06-14T15:25:18;31.50;99.90
56308;DHT22;42217;50.422;7.210;2023-06-14T15:27:46;33.00;99.90
56308;DHT22;42217;50.422;7.210;2023-06-14T15:30:12;34.40;99.90
56308;DHT22;42217;50.422;7.210;2023-06-14T15:32:38;35.20;99.90
56308;DHT22;42217;50.422;7.210;2023-06-14T15:35:04;34.80;99.90
56308;DHT22;42217;50.422;7.210;2023-06-14T15:37:30;34.60;99.90
56308;DHT22;42217;50.422;7.210;2023-06-14T15:39:55;34.40;99.90
56308;DHT22;42217;50.422;7.210;2023-06-14T15:42:21;35.30;99.90
56308;DHT22;42217;50.422;7.210;2023-06-14T15:44:47;36.70;99.90
56308;DHT22;42217;50.422;7.210;2023-06-14T15:47:13;38.00;99.90
56308;DHT22;42217;50.422;7.210;2023-06-14T15:49:39;37.00;99.90
56308;DHT22;42217;50.422;7.210;2023-06-14T15:52:05;34.80;99.90
56308;DHT22;42217;50.422;7.210;2023-06-14T15:54:31;31.70;99.90
56308;DHT22;42217;50.422;7.210;2023-06-14T15:56:57;29.80;99.90